Time;durP1;ratioP1;P1;durP2;ratioP2;P2;SDS_P1;SDS_P2;PMS_P1;PMS_P2;Temp;Humidity;BMP_temperature;BMP_pressure;BME280_temperature;BME280_humidity;BME280_pressure;Samples;Min_cycle;Max_cycle;Signal;HPM_P1;HPM_P2
2023/04/11 00:01:13;;;;;;;;;;;;;;;;;;7366567;19;1681;-63
2023/04/11 00:03:41;;;;;;;;;;;;;;;;;;7364509;19;1768;-63
2023/04/11 00:06:09;;;;;;;;;;;;;;;;;;7364767;19;1846;-62
2023/04/11 00:08:38;;;;;;;;;;;;;;;;;;7365602;19;1637;-63
2023/04/11 00:11:06;;;;;;;;;;;;;;;;;;7366809;19;2072;-63
2023/04/11 00:13:34;;;;;;;;;;;;;;;;;;7362281;19;1853;-63
2023/04/11 00:16:02;;;;;;;;;;;;;;;;;;7364191;19;1602;-64
2023/04/11 00:18:30;;;;;;;;;;;;;;;;;;7361508;19;1258;-65
2023/04/11 00:20:58;;;;;;;;;;;;;;;;;;7366616;19;1725;-64
2023/04/11 00:23:26;;;;;;;;;;;;;;;;;;7362799;19;806;-65
2023/04/11 00:25:54;;;;;;;;;;;;;;;;;;7362628;19;832;-64
2023/04/11 00:28:23;;;;;;;;;;;;;;;;;;7361568;19;1274;-65
2023/04/11 00:30:51;;;;;;;;;;;;;;;;;;7367416;19;865;-65
2023/04/11 00:33:20;;;;;;;;;;;;;;;;;;7371030;19;1849;-64
2023/04/11 00:35:48;;;;;;;;;;;;;;;;;;7367174;19;959;-63
2023/04/11 00:38:16;;;;;;;;;;;;;;;;;;7367608;19;1349;-64
2023/04/11 00:40:45;;;;;;;;;;;;;;;;;;7367729;19;817;-64
2023/04/11 00:43:13;;;;;;;;;;;;;;;;;;7368796;19;801;-64
2023/04/11 00:45:41;;;;;;;;;;;;;;;;;;7369002;19;771;-66
2023/04/11 00:48:09;;;;;;;;;;;;;;;;;;7365952;19;1356;-64
2023/04/11 00:50:38;;;;;;;;;;;;;;;;;;7366882;19;791;-66
2023/04/11 00:53:06;;;;;;;;;;;;;;;;;;7366264;19;1866;-65
2023/04/11 00:55:34;;;;;;;;;;;;;;;;;;7367298;19;891;-65
2023/04/11 00:58:02;;;;;;;;;;;;;;;;;;7367763;19;1258;-64
2023/04/11 01:00:31;;;;;;;;;;;;;;;;;;7367336;19;838;-64
2023/04/11 01:02:59;;;;;;;;;;;;;;;;;;7366996;19;832;-64
2023/04/11 01:05:28;;;;;;;;;;;;;;;;;;7368330;19;781;-64
2023/04/11 01:07:56;;;;;;;;;;;;;;;;;;7366132;19;1599;-64
2023/04/11 01:10:27;;;;;;;;;;;;;;;;;;7367799;19;761;-65
2023/04/11 01:12:55;;;;;;;;;;;;;;;;;;7366487;19;1863;-65
2023/04/11 01:15:23;;;;;;;;;;;;;;;;;;7366270;19;1929;-64
2023/04/11 01:17:54;;;;;;;;;;;;;;;;;;7367878;19;1883;-64
2023/04/11 01:20:23;;;;;;;;;;;;;;;;;;7370865;19;1867;-65
2023/04/11 01:22:51;;;;;;;;;;;;;;;;;;7367670;19;924;-63
2023/04/11 01:25:19;;;;;;;;;;;;;;;;;;7370269;19;2036;-64
2023/04/11 01:27:47;;;;;;;;;;;;;;;;;;7365642;19;819;-64
2023/04/11 01:30:15;;;;;;;;;;;;;;;;;;7368721;19;1884;-64
2023/04/11 01:32:44;;;;;;;;;;;;;;;;;;7367462;19;842;-64
2023/04/11 01:35:13;;;;;;;;;;;;;;;;;;7371112;19;1812;-64
2023/04/11 01:37:41;;;;;;;;;;;;;;;;;;7365368;19;807;-65
2023/04/11 01:40:09;;;;;;;;;;;;;;;;;;7363842;19;1771;-64
2023/04/11 01:42:37;;;;;;;;;;;;;;;;;;7365790;19;857;-65
2023/04/11 01:45:05;;;;;;;;;;;;;;;;;;7369108;19;1778;-65
2023/04/11 01:47:35;;;;;;;;;;;;;;;;;;7366172;19;830;-64
2023/04/11 01:50:03;;;;;;;;;;;;;;;;;;7364574;19;1262;-64
2023/04/11 01:52:31;;;;;;;;;;;;;;;;;;7365364;19;859;-65
2023/04/11 01:54:59;;;;;;;;;;;;;;;;;;7367067;19;1837;-65
2023/04/11 01:57:28;;;;;;;;;;;;;;;;;;7365268;19;793;-65
2023/04/11 01:59:56;;;;;;;;;;;;;;;;;;7364192;19;1821;-64
2023/04/11 02:02:24;;;;;;;;;;;;;;;;;;7364995;19;859;-64
2023/04/11 02:04:52;;;;;;;;;;;;;;;;;;7369704;19;1789;-65
2023/04/11 02:07:22;;;;;;;;;;;;;;;;;;7366573;19;861;-64
2023/04/11 02:09:50;;;;;;;;;;;;;;;;;;7362631;19;1348;-62
2023/04/11 02:12:18;;;;;;;;;;;;;;;;;;7364674;19;853;-64
2023/04/11 02:14:48;;;;;;;;;;;;;;;;;;7366425;19;1845;-64
2023/04/11 02:17:17;;;;;;;;;;;;;;;;;;7368586;19;1829;-64
2023/04/11 02:19:45;;;;;;;;;;;;;;;;;;7365598;19;1865;-65
2023/04/11 02:22:13;;;;;;;;;;;;;;;;;;7365149;19;849;-64
2023/04/11 02:24:41;;;;;;;;;;;;;;;;;;7367102;19;1808;-64
2023/04/11 02:27:09;;;;;;;;;;;;;;;;;;7364241;19;858;-64
2023/04/11 02:29:37;;;;;;;;;;;;;;;;;;7362105;19;1337;-64
2023/04/11 02:32:06;;;;;;;;;;;;;;;;;;7364869;19;861;-64
2023/04/11 02:34:34;;;;;;;;;;;;;;;;;;7365439;19;1856;-65
2023/04/11 02:37:05;;;;;;;;;;;;;;;;;;7362508;19;1110;-64
2023/04/11 02:39:35;;;;;;;;;;;;;;;;;;7361614;19;1258;-64
2023/04/11 02:42:03;;;;;;;;;;;;;;;;;;7367475;19;1831;-64
2023/04/11 02:44:31;;;;;;;;;;;;;;;;;;7367266;19;1852;-64
2023/04/11 02:47:01;;;;;;;;;;;;;;;;;;7365637;19;859;-64
2023/04/11 02:49:29;;;;;;;;;;;;;;;;;;7360884;19;1282;-65
2023/04/11 02:51:57;;;;;;;;;;;;;;;;;;7362596;19;818;-64
2023/04/11 02:54:26;;;;;;;;;;;;;;;;;;7364572;19;1851;-63
2023/04/11 02:56:55;;;;;;;;;;;;;;;;;;7363300;19;702;-65
2023/04/11 02:59:23;;;;;;;;;;;;;;;;;;7361005;19;1251;-65
2023/04/11 03:01:51;;;;;;;;;;;;;;;;;;7364413;19;1865;-64
2023/04/11 03:04:19;;;;;;;;;;;;;;;;;;7365978;19;1814;-64
2023/04/11 03:06:56;;;;;;;;;;;;;;;;;;7362288;19;749;-64
2023/04/11 03:09:25;;;;;;;;;;;;;;;;;;7360588;19;1886;-64
2023/04/11 03:11:53;;;;;;;;;;;;;;;;;;7362744;19;848;-64
2023/04/11 03:14:21;;;;;;;;;;;;;;;;;;7364258;19;1854;-64
2023/04/11 03:16:49;;;;;;;;;;;;;;;;;;7362757;19;819;-64
2023/04/11 03:19:17;;;;;;;;;;;;;;;;;;7360770;19;1289;-64
2023/04/11 03:21:46;;;;;;;;;;;;;;;;;;7363070;19;854;-64
2023/04/11 03:24:14;;;;;;;;;;;;;;;;;;7366328;19;1574;-64
2023/04/11 03:26:43;;;;;;;;;;;;;;;;;;7364585;19;813;-63
2023/04/11 03:29:15;;;;;;;;;;;;;;;;;;7361015;19;1329;-64
2023/04/11 03:31:55;;;;;;;;;;;;;;;;;;7362573;19;806;-63
2023/04/11 03:34:24;;;;;;;;;;;;;;;;;;7363012;19;1859;-65
2023/04/11 03:36:53;;;;;;;;;;;;;;;;;;7363016;19;858;-64
2023/04/11 03:39:21;;;;;;;;;;;;;;;;;;7360443;19;1298;-64
2023/04/11 03:41:50;;;;;;;;;;;;;;;;;;7365055;19;2067;-65
2023/04/11 03:44:18;;;;;;;;;;;;;;;;;;7364027;19;1792;-64
2023/04/11 03:46:47;;;;;;;;;;;;;;;;;;7361273;19;1058;-65
2023/04/11 03:49:16;;;;;;;;;;;;;;;;;;7359682;19;1341;-64
2023/04/11 03:51:46;;;;;;;;;;;;;;;;;;7361392;19;877;-63
2023/04/11 03:54:14;;;;;;;;;;;;;;;;;;7360788;19;1877;-64
2023/04/11 03:56:43;;;;;;;;;;;;;;;;;;7365211;19;1751;-63
2023/04/11 03:59:19;;;;;;;;;;;;;;;;;;7359162;19;1360;-64
2023/04/11 04:01:55;;;;;;;;;;;;;;;;;;7361676;19;820;-64
2023/04/11 04:04:23;;;;;;;;;;;;;;;;;;7365350;19;1832;-64
2023/04/11 04:07:01;;;;;;;;;;;;;;;;;;7371554;19;1804;-64
2023/04/11 04:09:37;;;;;;;;;;;;;;;;;;7365755;19;1341;-65
2023/04/11 04:12:05;;;;;;;;;;;;;;;;;;7367618;19;914;-64
2023/04/11 04:14:46;;;;;;;;;;;;;;;;;;7369456;19;1858;-65
2023/04/11 04:17:17;;;;;;;;;;;;;;;;;;7367704;19;657;-64
2023/04/11 04:19:45;;;;;;;;;;;;;;;;;;7365835;19;1273;-64
2023/04/11 04:22:16;;;;;;;;;;;;;;;;;;7367128;19;806;-63
2023/04/11 04:24:49;;;;;;;;;;;;;;;;;;7370104;19;1781;-64
2023/04/11 04:27:23;;;;;;;;;;;;;;;;;;7366934;19;899;-64
2023/04/11 04:29:52;;;;;;;;;;;;;;;;;;7365426;19;1313;-65
2023/04/11 04:32:27;;;;;;;;;;;;;;;;;;7366811;19;774;-64
2023/04/11 04:35:00;;;;;;;;;;;;;;;;;;7369268;19;1866;-64
2023/04/11 04:37:44;;;;;;;;;;;;;;;;;;7367074;19;775;-65
2023/04/11 04:40:42;;;;;;;;;;;;;;;;;;7368389;19;1801;-64
2023/04/11 04:43:16;;;;;;;;;;;;;;;;;;7367407;19;763;-64
2023/04/11 04:45:51;;;;;;;;;;;;;;;;;;7371523;19;1599;-63
2023/04/11 04:48:24;;;;;;;;;;;;;;;;;;7365352;19;1327;-64
2023/04/11 04:50:53;;;;;;;;;;;;;;;;;;7366379;19;854;-64
2023/04/11 04:53:22;;;;;;;;;;;;;;;;;;7366557;19;1838;-64
2023/04/11 04:55:55;;;;;;;;;;;;;;;;;;7364298;19;1857;-63
2023/04/11 04:58:26;;;;;;;;;;;;;;;;;;7364413;19;1302;-64
2023/04/11 05:00:55;;;;;;;;;;;;;;;;;;7368752;19;2090;-65
2023/04/11 05:03:26;;;;;;;;;;;;;;;;;;7366688;19;1813;-64
2023/04/11 05:05:55;;;;;;;;;;;;;;;;;;7366395;19;822;-64
2023/04/11 05:08:24;;;;;;;;;;;;;;;;;;7364722;19;1278;-64
2023/04/11 05:10:54;;;;;;;;;;;;;;;;;;7367583;19;1818;-65
2023/04/11 05:13:23;;;;;;;;;;;;;;;;;;7368793;19;1567;-64
2023/04/11 05:15:51;;;;;;;;;;;;;;;;;;7363569;19;1886;-63
2023/04/11 05:18:19;;;;;;;;;;;;;;;;;;7363912;19;1349;-63
2023/04/11 05:20:48;;;;;;;;;;;;;;;;;;7369259;19;1739;-63
2023/04/11 05:23:21;;;;;;;;;;;;;;;;;;7365894;19;1822;-65
2023/04/11 05:25:51;;;;;;;;;;;;;;;;;;7364962;19;1048;-64
2023/04/11 05:28:19;;;;;;;;;;;;;;;;;;7364552;19;1817;-64
2023/04/11 05:30:48;;;;;;;;;;;;;;;;;;7368844;19;1850;-63
2023/04/11 05:33:16;;;;;;;;;;;;;;;;;;7364780;19;1812;-65
2023/04/11 05:35:45;;;;;;;;;;;;;;;;;;7363329;19;1845;-65
2023/04/11 05:38:13;;;;;;;;;;;;;;;;;;7366109;19;1757;-65
2023/04/11 05:40:41;;;;;;;;;;;;;;;;;;7365097;19;811;-64
2023/04/11 05:43:12;;;;;;;;;;;;;;;;;;7370405;19;1683;-65
2023/04/11 05:45:40;;;;;;;;;;;;;;;;;;7364812;19;789;-64
2023/04/11 05:48:09;;;;;;;;;;;;;;;;;;7366377;19;1916;-64
2023/04/11 05:50:37;;;;;;;;;;;;;;;;;;7369066;19;1791;-64
2023/04/11 05:53:06;;;;;;;;;;;;;;;;;;7364970;19;838;-64
2023/04/11 05:55:34;;;;;;;;;;;;;;;;;;7364565;19;1842;-64
2023/04/11 05:58:02;;;;;;;;;;;;;;;;;;7366738;19;1667;-64
2023/04/11 06:00:31;;;;;;;;;;;;;;;;;;7366094;19;852;-63
2023/04/11 06:02:59;;;;;;;;;;;;;;;;;;7366216;19;810;-64
2023/04/11 06:05:30;;;;;;;;;;;;;;;;;;7365682;19;805;-64
2023/04/11 06:07:58;;;;;;;;;;;;;;;;;;7366884;19;1776;-64
2023/04/11 06:10:26;;;;;;;;;;;;;;;;;;7365734;19;819;-64
2023/04/11 06:12:54;;;;;;;;;;;;;;;;;;7365327;19;819;-64
2023/04/11 06:15:22;;;;;;;;;;;;;;;;;;7365359;19;1842;-63
2023/04/11 06:17:50;;;;;;;;;;;;;;;;;;7366995;19;1803;-64
2023/04/11 06:20:19;;;;;;;;;;;;;;;;;;7365157;19;806;-64
2023/04/11 06:22:50;;;;;;;;;;;;;;;;;;7364719;19;858;-64
2023/04/11 06:25:18;;;;;;;;;;;;;;;;;;7365135;19;714;-64
2023/04/11 06:27:46;;;;;;;;;;;;;;;;;;7361417;19;853;-63
2023/04/11 06:30:15;;;;;;;;;;;;;;;;;;7361485;19;1412;-63
2023/04/11 06:32:43;;;;;;;;;;;;;;;;;;7364236;19;767;-64
2023/04/11 06:35:11;;;;;;;;;;;;;;;;;;7363260;19;1853;-64
2023/04/11 06:37:41;;;;;;;;;;;;;;;;;;7364051;19;821;-64
2023/04/11 06:40:09;;;;;;;;;;;;;;;;;;7365436;19;1838;-64
2023/04/11 06:42:37;;;;;;;;;;;;;;;;;;7363887;19;824;-64
2023/04/11 06:45:06;;;;;;;;;;;;;;;;;;7363908;19;803;-66
2023/04/11 06:47:34;;;;;;;;;;;;;;;;;;7364162;19;747;-64
2023/04/11 06:50:02;;;;;;;;;;;;;;;;;;7365195;19;1753;-64
2023/04/11 06:52:31;;;;;;;;;;;;;;;;;;7364702;19;795;-65
2023/04/11 06:54:59;;;;;;;;;;;;;;;;;;7363848;19;1833;-65
2023/04/11 06:57:27;;;;;;;;;;;;;;;;;;7364659;19;789;-65
2023/04/11 06:59:55;;;;;;;;;;;;;;;;;;7363537;19;1858;-64
2023/04/11 07:02:24;;;;;;;;;;;;;;;;;;7364339;19;805;-66
2023/04/11 07:04:53;;;;;;;;;;;;;;;;;;7363613;19;837;-64
2023/04/11 07:07:21;;;;;;;;;;;;;;;;;;7364429;19;845;-64
2023/04/11 07:09:49;;;;;;;;;;;;;;;;;;7361348;19;1313;-65
2023/04/11 07:12:17;;;;;;;;;;;;;;;;;;7367567;19;1610;-65
2023/04/11 07:14:45;;;;;;;;;;;;;;;;;;7363818;19;1857;-65
2023/04/11 07:17:13;;;;;;;;;;;;;;;;;;7363998;19;872;-64
2023/04/11 07:19:41;;;;;;;;;;;;;;;;;;7364535;19;1846;-64
2023/04/11 07:22:10;;;;;;;;;;;;;;;;;;7364286;19;1815;-65
2023/04/11 07:24:38;;;;;;;;;;;;;;;;;;7368181;19;2052;-66
2023/04/11 07:27:06;;;;;;;;;;;;;;;;;;7364205;19;825;-65
2023/04/11 07:29:34;;;;;;;;;;;;;;;;;;7361109;19;1267;-65
2023/04/11 07:32:02;;;;;;;;;;;;;;;;;;7363901;19;814;-65
2023/04/11 07:34:32;;;;;;;;;;;;;;;;;;7364211;19;1797;-65
2023/04/11 07:37:00;;;;;;;;;;;;;;;;;;7363334;19;858;-64
2023/04/11 07:39:28;;;;;;;;;;;;;;;;;;7372431;19;1266;-64
2023/04/11 07:41:56;;;;;;;;;;;;;;;;;;7380293;19;1857;-64
2023/04/11 07:44:25;;;;;;;;;;;;;;;;;;7378844;19;1778;-64
2023/04/11 07:46:53;;;;;;;;;;;;;;;;;;7377453;19;749;-65
2023/04/11 07:49:21;;;;;;;;;;;;;;;;;;7375689;19;1336;-66
2023/04/11 07:51:49;;;;;;;;;;;;;;;;;;7378866;19;1795;-66
2023/04/11 07:54:17;;;;;;;;;;;;;;;;;;7376755;19;818;-65
2023/04/11 07:56:45;;;;;;;;;;;;;;;;;;7376046;19;2076;-66
2023/04/11 07:59:14;;;;;;;;;;;;;;;;;;7374463;19;1274;-65
2023/04/11 08:01:42;;;;;;;;;;;;;;;;;;7377833;19;806;-64
2023/04/11 08:04:11;;;;;;;;;;;;;;;;;;7376834;19;796;-63
2023/04/11 08:06:39;;;;;;;;;;;;;;;;;;7376564;19;834;-64
2023/04/11 08:09:07;;;;;;;;;;;;;;;;;;7374134;19;1261;-64
2023/04/11 08:11:35;;;;;;;;;;;;;;;;;;7380106;19;1846;-63
2023/04/11 08:14:03;;;;;;;;;;;;;;;;;;7376583;19;1775;-64
2023/04/11 08:16:31;;;;;;;;;;;;;;;;;;7374594;19;1869;-64
2023/04/11 08:18:59;;;;;;;;;;;;;;;;;;7374694;19;1282;-64
2023/04/11 08:21:27;;;;;;;;;;;;;;;;;;7377204;19;801;-65
2023/04/11 08:23:56;;;;;;;;;;;;;;;;;;7376506;19;862;-65
2023/04/11 08:26:24;;;;;;;;;;;;;;;;;;7377344;19;1851;-64
2023/04/11 08:28:52;;;;;;;;;;;;;;;;;;7374516;19;1376;-65
2023/04/11 08:31:20;;;;;;;;;;;;;;;;;;7376677;19;810;-64
2023/04/11 08:33:48;;;;;;;;;;;;;;;;;;7375853;19;867;-64
2023/04/11 08:36:17;;;;;;;;;;;;;;;;;;7374133;19;1818;-63
2023/04/11 08:38:45;;;;;;;;;;;;;;;;;;7375155;19;1832;-62
2023/04/11 08:41:13;;;;;;;;;;;;;;;;;;7379013;19;1830;-63
2023/04/11 08:43:43;;;;;;;;;;;;;;;;;;7376003;19;782;-63
2023/04/11 08:46:11;;;;;;;;;;;;;;;;;;7375673;19;834;-63
2023/04/11 08:48:40;;;;;;;;;;;;;;;;;;7373609;19;1352;-63
2023/04/11 08:51:08;;;;;;;;;;;;;;;;;;7368167;19;802;-63
2023/04/11 08:53:36;;;;;;;;;;;;;;;;;;7369004;19;1778;-64
2023/04/11 08:56:05;;;;;;;;;;;;;;;;;;7367206;19;1857;-64
2023/04/11 08:58:33;;;;;;;;;;;;;;;;;;7366654;19;1266;-65
2023/04/11 09:01:01;;;;;;;;;;;;;;;;;;7367787;19;834;-62
2023/04/11 09:03:30;;;;;;;;;;;;;;;;;;7367286;19;911;-64
2023/04/11 09:05:58;;;;;;;;;;;;;;;;;;7367838;19;794;-65
2023/04/11 09:08:27;;;;;;;;;;;;;;;;;;7368841;19;1793;-65
2023/04/11 09:10:55;;;;;;;;;;;;;;;;;;7367794;19;813;-65
2023/04/11 09:13:23;;;;;;;;;;;;;;;;;;7367848;19;815;-65
2023/04/11 09:15:51;;;;;;;;;;;;;;;;;;7366495;19;1859;-65
2023/04/11 09:18:19;;;;;;;;;;;;;;;;;;7366779;19;1341;-64
2023/04/11 09:20:47;;;;;;;;;;;;;;;;;;7369492;19;1752;-64
2023/04/11 09:23:16;;;;;;;;;;;;;;;;;;7371465;19;1890;-63
2023/04/11 09:25:44;;;;;;;;;;;;;;;;;;7371509;19;1817;-63
2023/04/11 09:28:12;;;;;;;;;;;;;;;;;;7365879;19;1321;-64
2023/04/11 09:30:40;;;;;;;;;;;;;;;;;;7367091;19;1796;-65
2023/04/11 09:33:08;;;;;;;;;;;;;;;;;;7371159;19;1796;-64
2023/04/11 09:35:36;;;;;;;;;;;;;;;;;;7363197;19;1841;-63
2023/04/11 09:38:08;;;;;;;;;;;;;;;;;;7366062;19;1688;-63
2023/04/11 09:40:36;;;;;;;;;;;;;;;;;;7367514;19;812;-64
2023/04/11 09:43:04;;;;;;;;;;;;;;;;;;7367279;19;811;-63
2023/04/11 09:45:32;;;;;;;;;;;;;;;;;;7367138;19;771;-65
2023/04/11 09:48:00;;;;;;;;;;;;;;;;;;7365793;19;1291;-65
2023/04/11 09:50:28;;;;;;;;;;;;;;;;;;7366670;19;814;-65
2023/04/11 09:52:57;;;;;;;;;;;;;;;;;;7366750;19;850;-64
2023/04/11 09:55:25;;;;;;;;;;;;;;;;;;7366092;19;1856;-64
2023/04/11 09:57:53;;;;;;;;;;;;;;;;;;7365769;19;878;-64
2023/04/11 10:00:21;;;;;;;;;;;;;;;;;;7366995;19;771;-64
2023/04/11 10:02:51;;;;;;;;;;;;;;;;;;7363107;19;815;-65
2023/04/11 10:05:19;;;;;;;;;;;;;;;;;;7365331;19;937;-63
2023/04/11 10:07:47;;;;;;;;;;;;;;;;;;7366126;19;849;-63
2023/04/11 10:10:16;;;;;;;;;;;;;;;;;;7363802;19;1266;-64
2023/04/11 10:12:44;;;;;;;;;;;;;;;;;;7366639;19;822;-64
2023/04/11 10:15:12;;;;;;;;;;;;;;;;;;7366615;19;810;-63
2023/04/11 10:17:41;;;;;;;;;;;;;;;;;;7363330;19;1857;-63
2023/04/11 10:20:09;;;;;;;;;;;;;;;;;;7363451;19;1271;-64
2023/04/11 10:22:37;;;;;;;;;;;;;;;;;;7366112;19;877;-64
2023/04/11 10:25:07;;;;;;;;;;;;;;;;;;7366846;19;863;-63
2023/04/11 10:27:36;;;;;;;;;;;;;;;;;;7366571;19;744;-65
2023/04/11 10:30:04;;;;;;;;;;;;;;;;;;7363464;19;1278;-65
2023/04/11 10:32:32;;;;;;;;;;;;;;;;;;7365198;19;700;-63
2023/04/11 10:35:00;;;;;;;;;;;;;;;;;;7365740;19;885;-63
2023/04/11 10:37:28;;;;;;;;;;;;;;;;;;7363501;19;1864;-63
2023/04/11 10:39:57;;;;;;;;;;;;;;;;;;7362893;19;1246;-66
2023/04/11 10:42:25;;;;;;;;;;;;;;;;;;7365120;19;774;-64
2023/04/11 10:44:53;;;;;;;;;;;;;;;;;;7365386;19;1109;-64
2023/04/11 10:47:24;;;;;;;;;;;;;;;;;;7364525;19;791;-65
2023/04/11 10:49:53;;;;;;;;;;;;;;;;;;7361876;19;1314;-65
2023/04/11 10:52:22;;;;;;;;;;;;;;;;;;7364552;19;841;-65
2023/04/11 10:54:50;;;;;;;;;;;;;;;;;;7366837;19;1546;-66
2023/04/11 10:57:18;;;;;;;;;;;;;;;;;;7363674;19;1858;-64
2023/04/11 10:59:46;;;;;;;;;;;;;;;;;;7364609;19;1992;-64
2023/04/11 11:02:14;;;;;;;;;;;;;;;;;;7368856;19;1746;-65
2023/04/11 11:04:42;;;;;;;;;;;;;;;;;;7364988;19;1771;-67
2023/04/11 11:07:11;;;;;;;;;;;;;;;;;;7366700;19;1749;-67
2023/04/11 11:09:39;;;;;;;;;;;;;;;;;;7364200;19;1900;-66
2023/04/11 11:12:07;;;;;;;;;;;;;;;;;;7364539;19;846;-65
2023/04/11 11:14:36;;;;;;;;;;;;;;;;;;7363931;19;855;-65
2023/04/11 11:17:04;;;;;;;;;;;;;;;;;;7363035;19;1859;-64
2023/04/11 11:19:32;;;;;;;;;;;;;;;;;;7364512;19;1610;-64
2023/04/11 11:22:02;;;;;;;;;;;;;;;;;;7365240;19;799;-64
2023/04/11 11:24:30;;;;;;;;;;;;;;;;;;7364746;19;850;-64
2023/04/11 11:26:59;;;;;;;;;;;;;;;;;;7364586;19;792;-65
2023/04/11 11:29:27;;;;;;;;;;;;;;;;;;7366020;19;1842;-63
2023/04/11 11:31:56;;;;;;;;;;;;;;;;;;7364531;19;846;-64
2023/04/11 11:34:24;;;;;;;;;;;;;;;;;;7364553;19;822;-64
2023/04/11 11:36:52;;;;;;;;;;;;;;;;;;7363757;19;1932;-65
2023/04/11 11:39:20;;;;;;;;;;;;;;;;;;7363465;19;1790;-65
2023/04/11 11:41:49;;;;;;;;;;;;;;;;;;7363788;19;859;-64
2023/04/11 11:44:17;;;;;;;;;;;;;;;;;;7364694;19;1062;-64
2023/04/11 11:46:45;;;;;;;;;;;;;;;;;;7364437;19;787;-65
2023/04/11 11:49:13;;;;;;;;;;;;;;;;;;7362740;19;1844;-64
2023/04/11 11:51:42;;;;;;;;;;;;;;;;;;7364793;19;806;-64
2023/04/11 11:54:10;;;;;;;;;;;;;;;;;;7363058;19;825;-64
2023/04/11 11:56:38;;;;;;;;;;;;;;;;;;7363618;19;1854;-64
2023/04/11 11:59:07;;;;;;;;;;;;;;;;;;7364055;19;2206;-64
2023/04/11 12:01:35;;;;;;;;;;;;;;;;;;7368660;19;1752;-64
2023/04/11 12:04:03;;;;;;;;;;;;;;;;;;7364176;19;821;-64
2023/04/11 12:06:32;;;;;;;;;;;;;;;;;;7363077;19;814;-64
2023/04/11 12:09:00;;;;;;;;;;;;;;;;;;7364919;19;1587;-64
2023/04/11 12:11:28;;;;;;;;;;;;;;;;;;7364130;19;798;-64
2023/04/11 12:13:57;;;;;;;;;;;;;;;;;;7363587;19;794;-64
2023/04/11 12:16:25;;;;;;;;;;;;;;;;;;7362157;19;1842;-64
2023/04/11 12:18:53;;;;;;;;;;;;;;;;;;7361075;19;1702;-65
2023/04/11 12:21:21;;;;;;;;;;;;;;;;;;7365156;19;1814;-65
2023/04/11 12:23:49;;;;;;;;;;;;;;;;;;7362041;19;774;-65
2023/04/11 12:26:19;;;;;;;;;;;;;;;;;;7367260;19;854;-66
2023/04/11 12:28:48;;;;;;;;;;;;;;;;;;7369938;19;1814;-65
2023/04/11 12:31:16;;;;;;;;;;;;;;;;;;7373761;19;1849;-65
2023/04/11 12:33:44;;;;;;;;;;;;;;;;;;7372218;19;1680;-64
2023/04/11 12:36:12;;;;;;;;;;;;;;;;;;7371921;19;1854;-64
2023/04/11 12:38:41;;;;;;;;;;;;;;;;;;7367629;19;1345;-65
2023/04/11 12:41:09;;;;;;;;;;;;;;;;;;7369556;19;828;-65
2023/04/11 12:43:37;;;;;;;;;;;;;;;;;;7369517;19;1781;-63
2023/04/11 12:46:06;;;;;;;;;;;;;;;;;;7368381;19;849;-64
2023/04/11 12:48:34;;;;;;;;;;;;;;;;;;7367782;19;1799;-66
2023/04/11 12:51:02;;;;;;;;;;;;;;;;;;7368785;19;805;-64
2023/04/11 12:53:30;;;;;;;;;;;;;;;;;;7369177;19;782;-63
2023/04/11 12:55:58;;;;;;;;;;;;;;;;;;7368729;19;797;-65
2023/04/11 12:58:27;;;;;;;;;;;;;;;;;;7367505;19;1883;-64
2023/04/11 13:00:55;;;;;;;;;;;;;;;;;;7371948;19;1761;-64
2023/04/11 13:03:24;;;;;;;;;;;;;;;;;;7368489;19;774;-65
2023/04/11 13:05:52;;;;;;;;;;;;;;;;;;7366886;19;838;-64
2023/04/11 13:08:20;;;;;;;;;;;;;;;;;;7367260;19;1353;-63
2023/04/11 13:10:48;;;;;;;;;;;;;;;;;;7371101;19;1820;-65
2023/04/11 13:13:17;;;;;;;;;;;;;;;;;;7366920;19;853;-66
2023/04/11 13:15:45;;;;;;;;;;;;;;;;;;7367650;19;864;-65
2023/04/11 13:18:13;;;;;;;;;;;;;;;;;;7364129;19;1870;-64
2023/04/11 13:20:41;;;;;;;;;;;;;;;;;;7369550;19;1793;-64
2023/04/11 13:23:09;;;;;;;;;;;;;;;;;;7367688;19;795;-65
2023/04/11 13:25:37;;;;;;;;;;;;;;;;;;7367289;19;810;-65
2023/04/11 13:28:06;;;;;;;;;;;;;;;;;;7367851;19;1807;-65
2023/04/11 13:30:34;;;;;;;;;;;;;;;;;;7368611;19;1808;-67
2023/04/11 13:33:02;;;;;;;;;;;;;;;;;;7367689;19;878;-66
2023/04/11 13:35:30;;;;;;;;;;;;;;;;;;7366979;19;862;-66
2023/04/11 13:37:59;;;;;;;;;;;;;;;;;;7365166;19;1842;-66
2023/04/11 13:40:27;;;;;;;;;;;;;;;;;;7367584;19;806;-64
2023/04/11 13:42:56;;;;;;;;;;;;;;;;;;7371691;19;2291;-66
2023/04/11 13:45:24;;;;;;;;;;;;;;;;;;7367104;19;775;-65
2023/04/11 13:47:52;;;;;;;;;;;;;;;;;;7365668;19;764;-67
2023/04/11 13:50:20;;;;;;;;;;;;;;;;;;7364617;19;856;-65
2023/04/11 13:52:48;;;;;;;;;;;;;;;;;;7371181;19;1792;-65
2023/04/11 13:55:16;;;;;;;;;;;;;;;;;;7367400;19;737;-65
2023/04/11 13:57:45;;;;;;;;;;;;;;;;;;7365216;19;1841;-65
2023/04/11 14:00:13;;;;;;;;;;;;;;;;;;7364529;19;1286;-65
2023/04/11 14:02:41;;;;;;;;;;;;;;;;;;7370578;19;1703;-64
2023/04/11 14:05:10;;;;;;;;;;;;;;;;;;7366633;19;863;-64
2023/04/11 14:07:38;;;;;;;;;;;;;;;;;;7365802;19;832;-64
2023/04/11 14:10:06;;;;;;;;;;;;;;;;;;7364086;19;1231;-64
2023/04/11 14:12:34;;;;;;;;;;;;;;;;;;7369435;19;1687;-63
2023/04/11 14:15:03;;;;;;;;;;;;;;;;;;7365668;19;870;-64
2023/04/11 14:17:31;;;;;;;;;;;;;;;;;;7364430;19;1850;-62
2023/04/11 14:19:59;;;;;;;;;;;;;;;;;;7362055;19;1286;-65
2023/04/11 14:22:27;;;;;;;;;;;;;;;;;;7370304;19;1766;-66
2023/04/11 14:24:56;;;;;;;;;;;;;;;;;;7366314;19;859;-64
2023/04/11 14:27:24;;;;;;;;;;;;;;;;;;7368470;19;1673;-66
2023/04/11 14:29:52;;;;;;;;;;;;;;;;;;7367123;19;1804;-64
2023/04/11 14:32:20;;;;;;;;;;;;;;;;;;7370687;19;1851;-63
2023/04/11 14:34:48;;;;;;;;;;;;;;;;;;7365187;19;837;-64
2023/04/11 14:37:16;;;;;;;;;;;;;;;;;;7365632;19;1853;-66
2023/04/11 14:39:44;;;;;;;;;;;;;;;;;;7363692;19;1893;-65
2023/04/11 14:42:13;;;;;;;;;;;;;;;;;;7365539;19;948;-65
2023/04/11 14:44:41;;;;;;;;;;;;;;;;;;7365822;19;826;-65
2023/04/11 14:47:09;;;;;;;;;;;;;;;;;;7364704;19;789;-65
2023/04/11 14:49:38;;;;;;;;;;;;;;;;;;7361398;19;1773;-65
2023/04/11 14:52:06;;;;;;;;;;;;;;;;;;7365265;19;810;-64
2023/04/11 14:54:34;;;;;;;;;;;;;;;;;;7365557;19;845;-66
2023/04/11 14:57:02;;;;;;;;;;;;;;;;;;7365459;19;1842;-68
2023/04/11 14:59:30;;;;;;;;;;;;;;;;;;7366910;19;1673;-65
2023/04/11 15:01:58;;;;;;;;;;;;;;;;;;7370160;19;1856;-66
2023/04/11 15:04:27;;;;;;;;;;;;;;;;;;7365871;19;790;-66
2023/04/11 15:06:55;;;;;;;;;;;;;;;;;;7365462;19;869;-65
2023/04/11 15:09:23;;;;;;;;;;;;;;;;;;7362793;19;1352;-66
2023/04/11 15:11:51;;;;;;;;;;;;;;;;;;7369299;19;1784;-66
2023/04/11 15:14:19;;;;;;;;;;;;;;;;;;7365151;19;825;-65
2023/04/11 15:16:48;;;;;;;;;;;;;;;;;;7367174;19;2051;-65
2023/04/11 15:19:16;;;;;;;;;;;;;;;;;;7361602;19;1901;-64
2023/04/11 15:21:45;;;;;;;;;;;;;;;;;;7365038;19;807;-64
2023/04/11 15:24:13;;;;;;;;;;;;;;;;;;7365505;19;845;-66
2023/04/11 15:26:41;;;;;;;;;;;;;;;;;;7365667;19;1762;-66
2023/04/11 15:29:09;;;;;;;;;;;;;;;;;;7367544;19;2196;-66
2023/04/11 15:31:37;;;;;;;;;;;;;;;;;;7369188;19;1424;-66
2023/04/11 15:34:05;;;;;;;;;;;;;;;;;;7365040;19;866;-66
2023/04/11 15:36:34;;;;;;;;;;;;;;;;;;7364077;19;826;-65
2023/04/11 15:39:03;;;;;;;;;;;;;;;;;;7360061;19;1845;-66
2023/04/11 15:41:31;;;;;;;;;;;;;;;;;;7364354;19;1788;-65
2023/04/11 15:43:59;;;;;;;;;;;;;;;;;;7363539;19;794;-66
2023/04/11 15:46:28;;;;;;;;;;;;;;;;;;7362810;19;817;-64
2023/04/11 15:48:57;;;;;;;;;;;;;;;;;;7360436;19;1654;-64
2023/04/11 15:51:25;;;;;;;;;;;;;;;;;;7362717;19;802;-65
2023/04/11 15:53:54;;;;;;;;;;;;;;;;;;7364320;19;1804;-64
2023/04/11 15:56:22;;;;;;;;;;;;;;;;;;7363338;19;1816;-65
2023/04/11 15:58:50;;;;;;;;;;;;;;;;;;7361333;19;1841;-66
2023/04/11 16:01:19;;;;;;;;;;;;;;;;;;7372813;19;1766;-65
2023/04/11 16:03:48;;;;;;;;;;;;;;;;;;7370553;19;794;-67
2023/04/11 16:06:17;;;;;;;;;;;;;;;;;;7368535;19;704;-66
2023/04/11 16:08:45;;;;;;;;;;;;;;;;;;7368998;19;1359;-66
2023/04/11 16:11:13;;;;;;;;;;;;;;;;;;7369873;19;817;-66
2023/04/11 16:13:42;;;;;;;;;;;;;;;;;;7370375;19;765;-66
2023/04/11 16:16:11;;;;;;;;;;;;;;;;;;7370281;19;913;-66
2023/04/11 16:18:39;;;;;;;;;;;;;;;;;;7366921;19;1845;-65
2023/04/11 16:21:07;;;;;;;;;;;;;;;;;;7370944;19;854;-67
2023/04/11 16:23:35;;;;;;;;;;;;;;;;;;7371892;19;838;-66
2023/04/11 16:26:03;;;;;;;;;;;;;;;;;;7371137;19;861;-67
2023/04/11 16:28:32;;;;;;;;;;;;;;;;;;7369499;19;1277;-66
2023/04/11 16:31:00;;;;;;;;;;;;;;;;;;7369836;19;813;-65
2023/04/11 16:33:28;;;;;;;;;;;;;;;;;;7370794;19;790;-66
2023/04/11 16:35:56;;;;;;;;;;;;;;;;;;7369801;19;851;-65
2023/04/11 16:38:24;;;;;;;;;;;;;;;;;;7367624;19;1853;-66
2023/04/11 16:40:52;;;;;;;;;;;;;;;;;;7369775;19;802;-66
2023/04/11 16:43:21;;;;;;;;;;;;;;;;;;7370018;19;844;-66
2023/04/11 16:45:49;;;;;;;;;;;;;;;;;;7368436;19;790;-66
2023/04/11 16:48:17;;;;;;;;;;;;;;;;;;7368799;19;1360;-67
2023/04/11 16:50:45;;;;;;;;;;;;;;;;;;7369805;19;892;-66
2023/04/11 16:53:15;;;;;;;;;;;;;;;;;;7369487;19;815;-66
2023/04/11 16:55:43;;;;;;;;;;;;;;;;;;7368694;19;819;-65
2023/04/11 16:58:11;;;;;;;;;;;;;;;;;;7367127;19;1854;-66
2023/04/11 17:00:39;;;;;;;;;;;;;;;;;;7368925;19;790;-66
2023/04/11 17:03:07;;;;;;;;;;;;;;;;;;7369103;19;817;-66
2023/04/11 17:05:36;;;;;;;;;;;;;;;;;;7368728;19;826;-65
2023/04/11 17:08:05;;;;;;;;;;;;;;;;;;7367855;19;1289;-66
2023/04/11 17:10:33;;;;;;;;;;;;;;;;;;7367706;19;817;-64
2023/04/11 17:13:01;;;;;;;;;;;;;;;;;;7368746;19;790;-65
2023/04/11 17:15:29;;;;;;;;;;;;;;;;;;7368294;19;817;-66
2023/04/11 17:17:57;;;;;;;;;;;;;;;;;;7366966;19;1830;-65
2023/04/11 17:20:25;;;;;;;;;;;;;;;;;;7368077;19;823;-65